Time;durP1;ratioP1;P1;durP2;ratioP2;P2;SDS_P1;SDS_P2;PMS_P1;PMS_P2;Temp;Humidity;BMP_temperature;BMP_pressure;BME280_temperature;BME280_humidity;BME280_pressure;Samples;Min_cycle;Max_cycle;Signal;HPM_P1;HPM_P2
2022/07/10 00:02:17;;;;;;;4.30;2.53;;;16.20;99.90;;;;;;4968114;28;20680;-72
2022/07/10 00:04:43;;;;;;;3.87;2.40;;;16.30;99.90;;;;;;4967089;28;20197;-73
2022/07/10 00:07:10;;;;;;;3.73;2.60;;;16.30;99.90;;;;;;4966007;28;20218;-72
2022/07/10 00:09:37;;;;;;;5.60;2.27;;;16.30;99.90;;;;;;4968451;28;20205;-72
2022/07/10 00:12:05;;;;;;;4.00;2.37;;;16.30;99.90;;;;;;4967975;28;20755;-72
2022/07/10 00:14:31;;;;;;;3.00;2.20;;;16.30;99.90;;;;;;4968340;28;20197;-72
2022/07/10 00:16:58;;;;;;;6.73;2.60;;;16.30;99.90;;;;;;4957962;28;20201;-73
2022/07/10 00:19:25;;;;;;;3.60;2.13;;;16.20;99.90;;;;;;4969456;28;20217;-73
2022/07/10 00:21:51;;;;;;;4.03;2.20;;;16.10;99.90;;;;;;4967763;28;20657;-72
2022/07/10 00:24:18;;;;;;;5.17;2.73;;;16.00;99.90;;;;;;4967558;28;20415;-72
2022/07/10 00:26:46;;;;;;;4.10;2.40;;;15.90;99.90;;;;;;4968053;28;20217;-72
2022/07/10 00:29:13;;;;;;;4.83;2.47;;;15.90;99.90;;;;;;4967359;28;20224;-73
2022/07/10 00:31:40;;;;;;;5.37;2.40;;;15.90;99.90;;;;;;4968923;28;20740;-72
2022/07/10 00:34:06;;;;;;;4.43;2.40;;;15.80;99.90;;;;;;4967456;28;20797;-71
2022/07/10 00:36:33;;;;;;;5.80;2.30;;;15.80;99.90;;;;;;4962709;28;20260;-73
2022/07/10 00:39:00;;;;;;;3.90;2.60;;;15.70;99.90;;;;;;4969310;28;20229;-72
2022/07/10 00:41:26;;;;;;;6.53;2.30;;;15.70;99.90;;;;;;4967193;28;20266;-72
2022/07/10 00:44:01;;;;;;;6.50;2.40;;;15.60;99.90;;;;;;4964221;28;20197;-72
2022/07/10 00:46:29;;;;;;;5.23;2.17;;;15.60;99.90;;;;;;4966129;28;20220;-72
2022/07/10 00:48:56;;;;;;;4.07;2.37;;;15.50;99.90;;;;;;4966718;28;20224;-73
2022/07/10 00:51:28;;;;;;;3.53;2.13;;;15.50;99.90;;;;;;4964391;28;20260;-72
2022/07/10 00:53:56;;;;;;;6.57;2.17;;;15.50;99.90;;;;;;4967089;28;20275;-72
2022/07/10 00:56:24;;;;;;;4.30;2.17;;;15.40;99.90;;;;;;4967266;28;20197;-72
2022/07/10 00:58:51;;;;;;;5.47;2.30;;;15.40;99.90;;;;;;4967338;28;20234;-72
2022/07/10 01:01:18;;;;;;;4.03;2.50;;;15.40;99.90;;;;;;4965233;28;20208;-72
2022/07/10 01:03:46;;;;;;;2.93;2.30;;;15.30;99.90;;;;;;4967676;28;20202;-72
2022/07/10 01:06:14;;;;;;;4.40;2.37;;;15.30;99.90;;;;;;4967064;28;20205;-72
2022/07/10 01:08:42;;;;;;;5.43;2.40;;;15.30;99.90;;;;;;4968033;28;20760;-72
2022/07/10 01:11:09;;;;;;;4.67;2.30;;;15.20;99.90;;;;;;4965753;28;20268;-73
2022/07/10 01:13:37;;;;;;;6.70;2.43;;;15.20;99.90;;;;;;4965844;28;20613;-72
2022/07/10 01:16:04;;;;;;;5.13;2.27;;;15.10;99.90;;;;;;4968177;28;20210;-72
2022/07/10 01:18:30;;;;;;;3.57;2.03;;;15.00;99.90;;;;;;4964334;28;20221;-72
2022/07/10 01:20:57;;;;;;;4.67;2.40;;;15.00;99.90;;;;;;4971010;28;20204;-72
2022/07/10 01:23:24;;;;;;;3.67;2.30;;;15.10;99.90;;;;;;4972556;28;20198;-72
2022/07/10 01:25:51;;;;;;;3.37;2.33;;;15.20;99.90;;;;;;4968214;28;20736;-71
2022/07/10 01:28:19;;;;;;;5.53;2.70;;;15.20;99.90;;;;;;4971359;28;20231;-72
2022/07/10 01:30:46;;;;;;;3.50;2.17;;;15.30;99.90;;;;;;4971676;28;20198;-73
2022/07/10 01:33:13;;;;;;;7.20;2.33;;;15.30;99.90;;;;;;4969206;28;20212;-72
2022/07/10 01:35:40;;;;;;;5.60;2.27;;;15.40;99.90;;;;;;4964038;28;20198;-72
2022/07/10 01:38:07;;;;;;;3.60;1.93;;;15.50;99.90;;;;;;4961714;28;20240;-73
2022/07/10 01:40:33;;;;;;;3.37;2.30;;;15.50;99.90;;;;;;4969229;28;20619;-72
2022/07/10 01:43:00;;;;;;;6.27;2.30;;;15.50;99.90;;;;;;4971465;28;20213;-73
2022/07/10 01:45:27;;;;;;;6.07;2.53;;;15.50;99.90;;;;;;4966319;28;20276;-72
2022/07/10 01:47:53;;;;;;;5.90;2.37;;;15.40;99.90;;;;;;4966981;28;20218;-72
2022/07/10 01:50:20;;;;;;;3.37;2.47;;;15.40;99.90;;;;;;4964025;28;20658;-72
2022/07/10 01:52:47;;;;;;;3.27;2.03;;;15.40;99.90;;;;;;4970157;28;20201;-73
2022/07/10 01:55:13;;;;;;;4.17;2.07;;;15.40;99.90;;;;;;4963481;28;20686;-72
2022/07/10 01:57:40;;;;;;;6.70;2.37;;;15.40;99.90;;;;;;4967684;28;20225;-73
2022/07/10 02:00:07;;;;;;;3.10;2.03;;;15.30;99.90;;;;;;4968913;28;20229;-72
2022/07/10 02:02:34;;;;;;;4.30;2.10;;;15.40;99.90;;;;;;4970297;28;20201;-73
2022/07/10 02:05:01;;;;;;;4.30;2.50;;;15.40;99.90;;;;;;4964610;28;20210;-72
2022/07/10 02:07:28;;;;;;;4.07;2.13;;;15.30;99.90;;;;;;4968843;28;20218;-72
2022/07/10 02:09:54;;;;;;;4.37;2.57;;;15.20;99.90;;;;;;4970497;28;20693;-73
2022/07/10 02:12:21;;;;;;;3.63;1.90;;;15.00;99.90;;;;;;4960908;28;20256;-73
2022/07/10 02:14:47;;;;;;;3.90;1.93;;;15.10;99.90;;;;;;4967221;28;20197;-72
2022/07/10 02:17:15;;;;;;;6.53;2.47;;;15.00;99.90;;;;;;4969337;28;20203;-73
2022/07/10 02:19:42;;;;;;;2.70;2.10;;;14.90;99.90;;;;;;4970799;28;20681;-73
2022/07/10 02:22:09;;;;;;;2.63;1.83;;;14.90;99.90;;;;;;4963386;28;20205;-74
2022/07/10 02:24:36;;;;;;;3.33;2.10;;;14.90;99.90;;;;;;4968405;28;20256;-73
2022/07/10 02:27:03;;;;;;;3.50;2.27;;;14.80;99.90;;;;;;4970283;28;20446;-72
2022/07/10 02:29:29;;;;;;;4.10;1.90;;;14.80;99.90;;;;;;4962102;28;20233;-72
2022/07/10 02:31:56;;;;;;;5.40;2.03;;;14.80;99.90;;;;;;4970554;28;20662;-71
2022/07/10 02:34:23;;;;;;;6.57;2.00;;;14.80;99.90;;;;;;4965010;28;20196;-72
2022/07/10 02:36:50;;;;;;;4.63;2.10;;;14.90;99.90;;;;;;4969568;28;20201;-74
2022/07/10 02:39:18;;;;;;;3.90;1.90;;;14.90;99.90;;;;;;4967190;28;20233;-72
2022/07/10 02:41:45;;;;;;;5.23;2.00;;;14.90;99.90;;;;;;4963153;28;20214;-72
2022/07/10 02:44:12;;;;;;;6.57;2.30;;;14.90;99.90;;;;;;4962285;28;20202;-72
2022/07/10 02:46:38;;;;;;;5.43;1.90;;;14.90;99.90;;;;;;4964379;28;20208;-70
2022/07/10 02:49:05;;;;;;;3.70;1.87;;;14.90;99.90;;;;;;4967702;28;20220;-72
2022/07/10 02:51:32;;;;;;;4.10;2.07;;;14.90;99.90;;;;;;4970941;28;20256;-73
2022/07/10 02:53:59;;;;;;;2.53;1.97;;;14.90;99.90;;;;;;4965757;28;20201;-72
2022/07/10 02:56:25;;;;;;;5.30;1.93;;;14.90;99.90;;;;;;4970073;28;20272;-72
2022/07/10 02:58:52;;;;;;;4.60;2.00;;;14.90;99.90;;;;;;4964801;28;20626;-74
2022/07/10 03:01:19;;;;;;;5.40;2.30;;;14.80;99.90;;;;;;4969452;28;20193;-73
2022/07/10 03:03:46;;;;;;;4.63;2.00;;;14.70;99.90;;;;;;4955920;28;20278;-72
2022/07/10 03:06:12;;;;;;;2.83;2.10;;;14.60;99.90;;;;;;4969201;28;20252;-73
2022/07/10 03:08:39;;;;;;;3.60;1.93;;;14.60;99.90;;;;;;4959607;28;20225;-73
2022/07/10 03:11:07;;;;;;;6.70;2.03;;;14.50;99.90;;;;;;4959421;28;20204;-72
2022/07/10 03:13:33;;;;;;;4.67;2.00;;;14.40;99.90;;;;;;4966578;28;20198;-73
2022/07/10 03:16:00;;;;;;;11.07;2.17;;;14.40;99.90;;;;;;4965948;28;20256;-73
2022/07/10 03:18:27;;;;;;;5.10;2.53;;;14.40;99.90;;;;;;4962478;28;20486;-73
2022/07/10 03:20:54;;;;;;;5.57;2.10;;;14.20;99.90;;;;;;4965034;28;20247;-73
2022/07/10 03:23:21;;;;;;;2.60;1.90;;;14.20;99.90;;;;;;4958396;28;20212;-71
2022/07/10 03:25:48;;;;;;;4.53;1.90;;;14.10;99.90;;;;;;4960583;28;20247;-73
2022/07/10 03:28:14;;;;;;;3.57;2.00;;;14.10;99.90;;;;;;4959921;28;20418;-71
2022/07/10 03:30:41;;;;;;;4.63;2.17;;;14.10;99.90;;;;;;4964711;28;20207;-72
2022/07/10 03:33:08;;;;;;;5.60;1.83;;;14.10;99.90;;;;;;4959233;28;20216;-73
2022/07/10 03:35:34;;;;;;;2.70;1.90;;;14.10;99.90;;;;;;4965208;28;20202;-72
2022/07/10 03:38:02;;;;;;;3.67;1.77;;;13.90;99.90;;;;;;4951598;28;20229;-73
2022/07/10 03:40:28;;;;;;;3.87;2.03;;;14.00;99.90;;;;;;4965478;28;20215;-72
2022/07/10 03:42:55;;;;;;;5.73;2.30;;;14.00;99.90;;;;;;4966053;28;21328;-71
2022/07/10 03:45:22;;;;;;;4.77;2.03;;;14.00;99.90;;;;;;4964832;28;20200;-72
2022/07/10 03:47:48;;;;;;;3.77;1.80;;;13.90;99.90;;;;;;4956291;28;20243;-73
2022/07/10 03:50:15;;;;;;;2.90;2.00;;;13.80;99.90;;;;;;4959910;28;20198;-72
2022/07/10 03:52:44;;;;;;;5.10;2.07;;;13.60;99.90;;;;;;4968799;28;20204;-71
2022/07/10 03:55:10;;;;;;;5.30;2.00;;;13.60;99.90;;;;;;4963908;28;20207;-72
2022/07/10 03:57:56;;;;;;;5.40;1.80;;;13.60;99.90;;;;;;4954633;28;20242;-74
2022/07/10 04:00:25;;;;;;;4.07;2.00;;;13.50;99.90;;;;;;4959028;28;20273;-72
2022/07/10 04:02:59;;;;;;;3.93;1.83;;;13.60;99.90;;;;;;4963810;28;20275;-73
2022/07/10 04:05:27;;;;;;;5.37;2.10;;;13.50;99.90;;;;;;4957955;28;20226;-71
2022/07/10 04:07:54;;;;;;;4.43;1.87;;;13.60;99.90;;;;;;4965424;28;20235;-72
2022/07/10 04:10:21;;;;;;;4.40;2.67;;;13.70;99.90;;;;;;4965360;28;20206;-73
2022/07/10 04:12:48;;;;;;;5.47;1.83;;;13.70;99.90;;;;;;4961446;28;20196;-74
2022/07/10 04:15:15;;;;;;;4.03;2.27;;;13.70;99.90;;;;;;4959254;28;20204;-75
2022/07/10 04:17:42;;;;;;;3.87;1.90;;;13.80;99.90;;;;;;4966336;28;20220;-72
2022/07/10 04:20:10;;;;;;;4.47;2.03;;;13.80;99.90;;;;;;4961307;28;20210;-75
2022/07/10 04:22:37;;;;;;;5.50;2.00;;;13.70;99.90;;;;;;4960459;28;20203;-74
2022/07/10 04:25:05;;;;;;;2.93;1.90;;;13.80;99.90;;;;;;4963673;28;20210;-73
2022/07/10 04:27:32;;;;;;;4.70;1.70;;;13.80;99.90;;;;;;4965346;28;20226;-72
2022/07/10 04:29:59;;;;;;;5.27;1.63;;;13.90;99.90;;;;;;4964233;28;20285;-74
2022/07/10 04:32:27;;;;;;;5.00;1.50;;;13.90;99.90;;;;;;4965275;28;20198;-71
2022/07/10 04:34:55;;;;;;;7.57;2.00;;;13.90;99.90;;;;;;4961442;28;20202;-71
2022/07/10 04:37:21;;;;;;;5.00;1.70;;;14.00;99.90;;;;;;4962105;28;20194;-73
2022/07/10 04:39:48;;;;;;;5.30;1.60;;;14.10;99.90;;;;;;4966583;28;20209;-72
2022/07/10 04:42:15;;;;;;;3.10;1.53;;;14.20;99.90;;;;;;4966872;28;20662;-72
2022/07/10 04:44:43;;;;;;;4.60;1.80;;;14.40;99.90;;;;;;4960128;28;20200;-72
2022/07/10 04:47:09;;;;;;;2.60;1.50;;;14.40;99.90;;;;;;4961453;28;20212;-74
2022/07/10 04:49:36;;;;;;;5.87;1.70;;;14.40;99.90;;;;;;4958491;28;20207;-73
2022/07/10 04:52:03;;;;;;;4.70;1.80;;;14.40;99.90;;;;;;4963257;28;20697;-72
2022/07/10 04:54:30;;;;;;;2.93;1.40;;;14.50;99.90;;;;;;4960216;28;20208;-73
2022/07/10 04:56:56;;;;;;;3.83;1.70;;;14.50;99.90;;;;;;4966247;28;20191;-71
2022/07/10 04:59:23;;;;;;;4.90;1.70;;;14.70;99.90;;;;;;4963085;28;20228;-72
2022/07/10 05:01:50;;;;;;;3.33;1.50;;;14.80;99.90;;;;;;4963252;28;20199;-73
2022/07/10 05:04:17;;;;;;;5.40;1.70;;;14.90;99.90;;;;;;4956901;28;20251;-73
2022/07/10 05:06:43;;;;;;;3.50;1.50;;;15.10;99.90;;;;;;4968417;28;20265;-71
2022/07/10 05:09:10;;;;;;;3.57;1.50;;;15.30;99.90;;;;;;4963110;28;20230;-73
2022/07/10 05:11:36;;;;;;;5.03;1.60;;;15.30;99.90;;;;;;4967500;28;20415;-72
2022/07/10 05:14:03;;;;;;;4.53;1.47;;;15.20;99.90;;;;;;4969757;28;20608;-72
2022/07/10 05:16:30;;;;;;;2.27;1.50;;;15.40;99.90;;;;;;4964879;28;20237;-72
2022/07/10 05:18:56;;;;;;;3.37;1.60;;;15.50;99.90;;;;;;4966953;28;20218;-73
2022/07/10 05:21:25;;;;;;;2.63;1.40;;;15.60;99.90;;;;;;4962583;28;20202;-73
2022/07/10 05:23:52;;;;;;;2.90;1.20;;;15.70;99.90;;;;;;4959642;28;20201;-73
2022/07/10 05:26:18;;;;;;;4.13;1.50;;;15.60;99.90;;;;;;4967419;28;20202;-73
2022/07/10 05:28:45;;;;;;;5.13;1.20;;;15.60;99.90;;;;;;4967058;28;20702;-72
2022/07/10 05:31:12;;;;;;;3.90;1.50;;;15.70;99.90;;;;;;4967589;28;20230;-74
2022/07/10 05:33:40;;;;;;;2.80;1.40;;;15.80;99.90;;;;;;4967133;28;20358;-71
2022/07/10 05:36:08;;;;;;;3.07;1.43;;;15.90;99.90;;;;;;4969607;28;20201;-72
2022/07/10 05:38:35;;;;;;;3.10;1.50;;;16.10;99.90;;;;;;4968072;28;20221;-73
2022/07/10 05:41:02;;;;;;;2.40;1.30;;;16.20;99.90;;;;;;4972150;28;20225;-72
2022/07/10 05:43:28;;;;;;;2.30;1.30;;;16.10;99.90;;;;;;4966637;28;20205;-73
2022/07/10 05:45:55;;;;;;;2.93;1.50;;;16.00;99.90;;;;;;4969432;28;20197;-73
2022/07/10 05:48:25;;;;;;;4.60;1.37;;;15.60;99.90;;;;;;4967456;28;20222;-72
2022/07/10 05:50:52;;;;;;;3.50;1.37;;;15.60;99.90;;;;;;4957374;28;20662;-72
2022/07/10 05:53:19;;;;;;;2.70;1.40;;;15.60;99.90;;;;;;4968079;28;20205;-73
2022/07/10 05:55:49;;;;;;;2.87;1.20;;;15.60;99.90;;;;;;4962042;28;20208;-73
2022/07/10 05:58:16;;;;;;;2.50;1.20;;;15.60;99.90;;;;;;4966075;28;20299;-72
2022/07/10 06:00:43;;;;;;;3.90;1.40;;;15.70;99.90;;;;;;4967469;28;20625;-72
2022/07/10 06:03:10;;;;;;;3.20;1.20;;;15.80;99.90;;;;;;4961833;28;20208;-72
2022/07/10 06:05:37;;;;;;;4.30;1.30;;;15.70;99.90;;;;;;4968364;28;20194;-73
2022/07/10 06:08:04;;;;;;;4.47;1.40;;;15.70;99.90;;;;;;4968002;28;20232;-72
2022/07/10 06:10:31;;;;;;;2.60;1.00;;;15.60;99.90;;;;;;4962579;28;20194;-72
2022/07/10 06:12:57;;;;;;;5.20;1.20;;;15.50;99.90;;;;;;4965575;28;20200;-72
2022/07/10 06:15:24;;;;;;;3.63;1.47;;;15.60;99.90;;;;;;4967827;28;20224;-72
2022/07/10 06:17:51;;;;;;;1.90;1.20;;;15.60;99.90;;;;;;4962769;28;20662;-72
2022/07/10 06:20:17;;;;;;;2.27;1.10;;;15.60;99.90;;;;;;4962224;28;20280;-72
2022/07/10 06:22:44;;;;;;;6.23;1.00;;;15.60;99.90;;;;;;4960510;28;20208;-74
2022/07/10 06:25:11;;;;;;;8.07;1.37;;;15.90;99.90;;;;;;4963361;28;20202;-72
2022/07/10 06:27:38;;;;;;;2.87;0.90;;;16.10;99.90;;;;;;4968709;28;20244;-71
2022/07/10 06:30:05;;;;;;;3.17;0.80;;;16.40;99.90;;;;;;4965813;28;20210;-72
2022/07/10 06:32:32;;;;;;;1.57;0.90;;;16.50;99.90;;;;;;4963602;28;20205;-72
2022/07/10 06:34:59;;;;;;;2.50;1.00;;;16.50;99.90;;;;;;4968607;28;20257;-73
2022/07/10 06:37:25;;;;;;;4.37;0.90;;;16.40;99.90;;;;;;4962468;28;20205;-72
2022/07/10 06:39:52;;;;;;;2.83;0.93;;;16.40;99.90;;;;;;4963061;28;20615;-72
2022/07/10 06:42:19;;;;;;;3.37;0.80;;;16.40;99.90;;;;;;4967855;28;20198;-73
2022/07/10 06:44:45;;;;;;;3.90;1.03;;;16.20;99.90;;;;;;4963743;28;20205;-73
2022/07/10 06:50:01;;;;;;;2.30;0.77;;;16.10;99.90;;;;;;4957009;28;20214;-72
2022/07/10 06:52:28;;;;;;;3.17;0.83;;;16.20;99.90;;;;;;4965567;28;20222;-72
2022/07/10 06:54:54;;;;;;;2.13;0.90;;;16.20;99.90;;;;;;4966953;28;20189;-73
2022/07/10 06:57:21;;;;;;;2.37;0.67;;;16.40;99.90;;;;;;4963136;28;20198;-73
2022/07/10 06:59:48;;;;;;;2.97;0.83;;;16.50;99.90;;;;;;4967707;28;20194;-74
2022/07/10 07:02:15;;;;;;;4.00;0.83;;;16.50;99.90;;;;;;4967202;28;20669;-71
2022/07/10 07:04:42;;;;;;;3.30;0.87;;;16.60;99.90;;;;;;4965357;28;20202;-73
2022/07/10 07:07:08;;;;;;;4.00;0.83;;;16.80;99.90;;;;;;4967031;28;20524;-70
2022/07/10 07:09:35;;;;;;;3.93;1.13;;;16.80;99.90;;;;;;4968703;28;20701;-74
2022/07/10 07:12:03;;;;;;;2.33;0.80;;;16.80;99.90;;;;;;4970230;28;20666;-73
2022/07/10 07:14:30;;;;;;;2.43;0.80;;;17.00;99.90;;;;;;4968042;28;20203;-74
2022/07/10 07:17:06;;;;;;;1.57;0.70;;;17.10;99.90;;;;;;4968649;28;20206;-73
2022/07/10 07:23:23;;;;;;;1.67;0.80;;;17.50;99.90;;;;;;4966249;28;20198;-74
2022/07/10 07:25:18;;;;;;;2.73;0.70;;;17.80;99.90;;;;;;4953854;28;20210;-73
2022/07/10 07:27:45;;;;;;;1.10;0.80;;;17.80;99.90;;;;;;4970137;28;20548;-73
2022/07/10 07:30:14;;;;;;;2.80;0.80;;;18.10;99.90;;;;;;4969730;28;20199;-73
2022/07/10 07:32:42;;;;;;;3.27;0.60;;;18.30;99.90;;;;;;4961857;28;20209;-73
2022/07/10 07:35:10;;;;;;;1.33;0.60;;;17.90;99.90;;;;;;4968407;28;20193;-73
2022/07/10 07:37:45;;;;;;;1.33;0.60;;;17.80;99.90;;;;;;4966114;28;20735;-71
2022/07/10 07:40:13;;;;;;;2.47;0.70;;;17.80;99.90;;;;;;4968454;28;20244;-73
2022/07/10 07:42:41;;;;;;;4.20;0.83;;;17.80;99.90;;;;;;4963538;28;20205;-74
2022/07/10 07:45:08;;;;;;;2.00;0.87;;;18.20;99.90;;;;;;4967342;28;20205;-73
2022/07/10 07:47:51;;;;;;;2.57;1.00;;;18.70;99.90;;;;;;4969513;28;20279;-73
2022/07/10 07:50:20;;;;;;;2.50;0.83;;;18.90;99.90;;;;;;4963709;28;20248;-72
2022/07/10 07:52:48;;;;;;;2.17;0.60;;;19.00;99.90;;;;;;4964961;28;20193;-74
2022/07/10 07:55:17;;;;;;;1.30;0.57;;;18.80;99.90;;;;;;4964236;28;20190;-73
2022/07/10 07:57:45;;;;;;;1.60;0.77;;;18.90;99.90;;;;;;4969628;28;20220;-73
2022/07/10 08:00:12;;;;;;;1.57;0.70;;;19.10;99.90;;;;;;4967188;28;20199;-73
2022/07/10 08:02:39;;;;;;;1.57;0.70;;;19.20;99.90;;;;;;4965307;28;20198;-73
2022/07/10 08:05:07;;;;;;;2.50;0.77;;;19.10;99.90;;;;;;4969700;28;20224;-73
2022/07/10 08:07:40;;;;;;;2.80;0.80;;;18.80;99.90;;;;;;4964899;28;20217;-73
2022/07/10 08:10:09;;;;;;;3.53;0.77;;;18.70;99.90;;;;;;4967736;28;20284;-73
2022/07/10 08:12:36;;;;;;;3.23;0.90;;;18.60;99.90;;;;;;4970475;28;20201;-73
2022/07/10 08:15:03;;;;;;;2.67;1.03;;;18.80;99.90;;;;;;4961163;28;20202;-73
2022/07/10 08:17:30;;;;;;;2.77;0.90;;;18.80;99.90;;;;;;4970616;28;21542;-73
2022/07/10 08:19:57;;;;;;;2.50;0.90;;;18.80;99.90;;;;;;4963508;28;20202;-73
2022/07/10 08:22:23;;;;;;;4.40;0.97;;;18.80;99.90;;;;;;4967624;28;20229;-72
2022/07/10 08:24:50;;;;;;;4.13;0.93;;;19.00;99.90;;;;;;4966299;28;20216;-75
2022/07/10 08:27:17;;;;;;;4.50;0.80;;;18.80;99.90;;;;;;4966582;28;20677;-73
2022/07/10 08:29:43;;;;;;;4.43;0.90;;;19.10;99.90;;;;;;4968208;28;20271;-73
2022/07/10 08:32:10;;;;;;;3.33;1.13;;;19.00;99.90;;;;;;4969471;28;20205;-74
2022/07/10 08:34:37;;;;;;;2.40;0.90;;;19.10;99.90;;;;;;4963324;28;20220;-71
2022/07/10 08:37:04;;;;;;;3.50;1.20;;;19.50;99.90;;;;;;4963696;28;20209;-73
2022/07/10 08:39:31;;;;;;;2.03;1.00;;;19.40;99.90;;;;;;4961538;28;20229;-74
2022/07/10 08:41:59;;;;;;;2.13;0.80;;;19.30;99.90;;;;;;4957468;28;20208;-73
2022/07/10 08:44:26;;;;;;;2.30;1.00;;;19.60;99.90;;;;;;4964762;28;20224;-73
2022/07/10 08:46:53;;;;;;;3.37;1.13;;;19.70;99.90;;;;;;4965985;28;20213;-70
2022/07/10 08:49:25;;;;;;;2.47;1.03;;;19.70;99.90;;;;;;4968928;28;20233;-73
2022/07/10 08:51:59;;;;;;;3.57;1.20;;;19.70;99.90;;;;;;4968752;28;20194;-73
2022/07/10 08:54:29;;;;;;;3.77;1.10;;;19.80;99.90;;;;;;4960974;28;20202;-75
2022/07/10 08:56:57;;;;;;;1.23;1.00;;;19.50;99.90;;;;;;4967195;28;20229;-72
2022/07/10 08:59:24;;;;;;;3.13;1.13;;;19.10;99.90;;;;;;4966175;28;20720;-73
2022/07/10 09:01:58;;;;;;;1.97;0.90;;;18.70;99.90;;;;;;4966113;28;20761;-73
2022/07/10 09:04:26;;;;;;;6.30;1.40;;;18.50;99.90;;;;;;4963973;28;21179;-73
2022/07/10 09:06:54;;;;;;;4.90;1.30;;;18.70;99.90;;;;;;4967372;28;20199;-73
2022/07/10 09:09:21;;;;;;;3.67;1.27;;;18.80;99.90;;;;;;4965058;28;20705;-74
2022/07/10 09:11:48;;;;;;;3.70;1.23;;;18.90;99.90;;;;;;4959720;28;20202;-74
2022/07/10 09:14:16;;;;;;;2.50;1.13;;;19.30;99.90;;;;;;4966879;28;20194;-74
2022/07/10 09:16:59;;;;;;;3.00;1.10;;;19.80;99.90;;;;;;4965987;28;20287;-74
2022/07/10 09:19:28;;;;;;;2.57;1.30;;;20.20;99.90;;;;;;4963219;28;20500;-74
2022/07/10 09:22:02;;;;;;;2.77;0.90;;;20.00;99.90;;;;;;4960211;28;20194;-75
2022/07/10 09:24:39;;;;;;;1.67;0.80;;;20.10;99.90;;;;;;4966554;28;20237;-75
2022/07/10 09:27:06;;;;;;;2.83;0.90;;;19.80;99.90;;;;;;4954556;28;20205;-74
2022/07/10 09:29:45;;;;;;;1.90;0.90;;;19.80;99.90;;;;;;4955612;28;20594;-74
2022/07/10 09:32:13;;;;;;;5.10;1.20;;;19.90;99.90;;;;;;4958301;28;20627;-76
2022/07/10 09:34:48;;;;;;;4.60;1.10;;;20.10;99.90;;;;;;4965764;28;20244;-73
2022/07/10 09:37:30;;;;;;;2.50;1.13;;;19.90;99.90;;;;;;4969527;28;20209;-73
2022/07/10 09:40:05;;;;;;;2.80;0.90;;;19.90;99.90;;;;;;4962613;28;20217;-75
2022/07/10 09:42:39;;;;;;;2.03;1.10;;;19.80;99.90;;;;;;4965825;28;20506;-72
2022/07/10 09:45:12;;;;;;;3.03;1.10;;;19.60;99.90;;;;;;4965039;28;20202;-73
2022/07/10 09:48:04;;;;;;;4.00;1.20;;;19.70;99.90;;;;;;4964668;28;20225;-71
2022/07/10 09:50:35;;;;;;;3.17;1.07;;;20.00;99.90;;;;;;4962826;28;21776;-74
2022/07/10 09:53:03;;;;;;;3.73;1.30;;;19.90;99.90;;;;;;4958126;28;20745;-73
2022/07/10 09:55:35;;;;;;;3.60;1.10;;;19.40;99.90;;;;;;4970620;28;20202;-73
2022/07/10 09:58:04;;;;;;;3.37;1.20;;;19.20;99.90;;;;;;4962574;28;20218;-72
2022/07/10 10:00:32;;;;;;;2.03;1.10;;;19.50;99.90;;;;;;4964162;28;20858;-72
2022/07/10 10:03:03;;;;;;;3.87;1.30;;;19.80;99.90;;;;;;4958091;28;20198;-72
2022/07/10 10:05:54;;;;;;;3.27;1.17;;;19.90;99.90;;;;;;4970031;28;20201;-73
2022/07/10 10:08:57;;;;;;;4.07;1.40;;;20.50;99.90;;;;;;4961210;28;20285;-73
2022/07/10 10:11:26;;;;;;;4.83;1.13;;;20.60;99.90;;;;;;4970037;28;20209;-73
2022/07/10 10:13:54;;;;;;;2.35;1.33;;;20.90;99.90;;;;;;4965621;28;20206;-75
2022/07/10 10:16:21;;;;;;;3.58;1.17;;;20.90;99.90;;;;;;4963812;28;20212;-72
2022/07/10 10:21:36;;;;;;;4.30;1.50;;;20.70;99.90;;;;;;4966452;28;20201;-75
2022/07/10 10:24:03;;;;;;;4.80;1.50;;;20.10;99.90;;;;;;4961860;28;20206;-72
2022/07/10 10:26:29;;;;;;;3.07;1.10;;;20.00;99.90;;;;;;4964760;28;20580;-73
2022/07/10 10:28:58;;;;;;;4.77;1.13;;;20.20;99.90;;;;;;4961447;28;20229;-75
2022/07/10 10:31:27;;;;;;;3.93;1.30;;;20.40;99.90;;;;;;4961326;28;20198;-71
2022/07/10 10:33:55;;;;;;;2.70;1.13;;;20.20;99.90;;;;;;4967746;28;20194;-75
2022/07/10 10:36:44;;;;;;;3.80;1.00;;;20.50;99.90;;;;;;4964121;28;20206;-74
2022/07/10 10:39:16;;;;;;;2.80;1.10;;;20.60;99.90;;;;;;4965291;28;20758;-73
2022/07/10 10:41:53;;;;;;;6.07;1.23;;;20.90;99.90;;;;;;4963199;28;20387;-73
2022/07/10 10:44:21;;;;;;;3.60;1.30;;;20.60;99.90;;;;;;4966978;28;20205;-72
2022/07/10 10:46:56;;;;;;;2.20;1.13;;;20.60;99.90;;;;;;4962456;28;20197;-73
2022/07/10 10:49:25;;;;;;;4.60;1.30;;;20.60;99.90;;;;;;4967671;28;20232;-72
2022/07/10 10:52:03;;;;;;;4.43;1.30;;;20.80;99.90;;;;;;4968533;28;20201;-74
2022/07/10 10:54:51;;;;;;;3.17;1.27;;;20.70;99.90;;;;;;4962573;28;20198;-73
2022/07/10 10:57:18;;;;;;;3.83;1.10;;;20.80;99.90;;;;;;4967140;28;20202;-74
2022/07/10 10:59:54;;;;;;;3.22;1.33;;;21.00;99.90;;;;;;4970695;28;20221;-74
2022/07/10 11:02:28;;;;;;;4.53;1.20;;;21.00;99.90;;;;;;4967719;28;20201;-73
2022/07/10 11:08:02;;;;;;;1.48;0.80;;;21.60;99.90;;;;;;4970441;28;20225;-73
2022/07/10 11:10:30;;;;;;;2.17;1.10;;;21.90;99.90;;;;;;4960128;28;20233;-74
2022/07/10 11:13:05;;;;;;;3.15;1.10;;;22.20;99.90;;;;;;4970600;28;20190;-73
2022/07/10 11:15:37;;;;;;;4.75;1.00;;;22.10;99.90;;;;;;4968699;28;20197;-74
2022/07/10 11:18:11;;;;;;;3.50;1.10;;;21.80;99.90;;;;;;4969468;28;20217;-72
2022/07/10 11:20:41;;;;;;;2.60;1.27;;;22.10;99.90;;;;;;4961404;28;20231;-72
2022/07/10 11:23:17;;;;;;;1.13;0.90;;;22.30;99.90;;;;;;4980204;28;20233;-75
2022/07/10 11:26:01;;;;;;;2.15;1.02;;;22.40;99.90;;;;;;4972384;28;20208;-74
2022/07/10 11:28:43;;;;;;;1.33;1.00;;;22.50;99.90;;;;;;4975711;28;20229;-73
2022/07/10 11:31:10;;;;;;;2.70;1.10;;;22.30;99.90;;;;;;4972315;28;20209;-74
2022/07/10 11:33:43;;;;;;;1.30;0.90;;;22.20;99.90;;;;;;4968804;28;20710;-74
2022/07/10 11:36:18;;;;;;;1.80;1.10;;;22.20;99.90;;;;;;4958576;28;20200;-73
2022/07/10 11:38:45;;;;;;;3.05;1.00;;;22.10;99.90;;;;;;4970562;28;20227;-73
2022/07/10 11:41:16;;;;;;;3.00;1.00;;;22.20;99.90;;;;;;4957425;28;20221;-74
2022/07/10 11:43:51;;;;;;;3.72;1.50;;;22.20;99.90;;;;;;4969653;28;20575;-72
2022/07/10 11:46:22;;;;;;;2.65;1.02;;;22.40;99.90;;;;;;4961159;28;20231;-72
2022/07/10 11:48:52;;;;;;;3.15;1.17;;;22.60;99.90;;;;;;4964297;28;20217;-73
2022/07/10 11:51:29;;;;;;;2.55;1.05;;;22.10;99.90;;;;;;4959708;28;20190;-73
2022/07/10 11:54:00;;;;;;;2.25;1.10;;;22.10;99.90;;;;;;4968587;28;20207;-73
2022/07/10 11:56:30;;;;;;;4.20;1.10;;;22.20;99.90;;;;;;4966862;28;20205;-73
2022/07/10 11:59:05;;;;;;;2.92;1.10;;;22.50;99.90;;;;;;4957577;28;20253;-72
2022/07/10 12:01:40;;;;;;;2.67;1.40;;;22.60;99.90;;;;;;4967185;28;20197;-74
2022/07/10 12:04:08;;;;;;;1.45;1.10;;;22.40;99.90;;;;;;4959899;28;20647;-71
2022/07/10 12:06:38;;;;;;;3.95;1.30;;;22.40;99.90;;;;;;4962827;28;20361;-73
2022/07/10 12:09:07;;;;;;;2.13;1.15;;;22.40;99.90;;;;;;4959785;28;20300;-72
2022/07/10 12:11:35;;;;;;;1.42;1.10;;;22.60;99.90;;;;;;4961491;28;20659;-71
2022/07/10 12:14:19;;;;;;;6.28;1.10;;;22.90;99.90;;;;;;4960655;28;20198;-70
2022/07/10 12:16:47;;;;;;;2.88;1.48;;;23.20;99.90;;;;;;4961793;28;20210;-71
2022/07/10 12:19:17;;;;;;;1.27;1.00;;;22.50;99.90;;;;;;4966075;28;20229;-72
2022/07/10 12:21:45;;;;;;;14.82;7.45;;;22.30;99.90;;;;;;4964853;28;20185;-72
2022/07/10 12:24:15;;;;;;;8.88;6.75;;;22.00;99.90;;;;;;4956333;28;20716;-71
2022/07/10 12:26:43;;;;;;;3.38;1.45;;;21.80;99.90;;;;;;4963961;28;20205;-72
2022/07/10 12:29:23;;;;;;;2.25;0.98;;;21.90;99.90;;;;;;4963101;28;20717;-74
2022/07/10 12:31:52;;;;;;;1.05;0.73;;;22.00;99.90;;;;;;4959706;28;20685;-71
2022/07/10 12:34:19;;;;;;;3.30;0.80;;;21.60;99.90;;;;;;4965102;28;20197;-71
2022/07/10 12:36:50;;;;;;;1.60;0.93;;;21.60;99.90;;;;;;4963022;28;20608;-71
2022/07/10 12:39:21;;;;;;;2.80;0.90;;;21.70;99.90;;;;;;4958017;28;20233;-70
2022/07/10 12:42:02;;;;;;;3.33;0.75;;;22.00;99.90;;;;;;4955609;28;20205;-72
2022/07/10 12:44:46;;;;;;;3.10;0.90;;;22.40;99.90;;;;;;4961214;28;20194;-72
2022/07/10 12:47:15;;;;;;;1.00;0.70;;;22.10;99.90;;;;;;4967192;28;20198;-72
2022/07/10 12:50:04;;;;;;;1.90;0.77;;;21.60;99.90;;;;;;4964059;28;20639;-71
2022/07/10 12:52:34;;;;;;;2.25;0.80;;;21.60;99.90;;;;;;4966292;28;20205;-71
2022/07/10 12:55:22;;;;;;;2.08;0.70;;;21.80;99.90;;;;;;4962339;28;20205;-71
2022/07/10 12:57:54;;;;;;;3.00;0.90;;;21.70;99.90;;;;;;4957704;28;20239;-72
2022/07/10 13:00:34;;;;;;;2.45;0.80;;;21.70;99.90;;;;;;4967974;28;20244;-72
2022/07/10 13:03:05;;;;;;;2.05;0.75;;;21.60;99.90;;;;;;4958616;28;20204;-71
2022/07/10 13:05:35;;;;;;;2.08;1.02;;;21.70;99.90;;;;;;4966173;28;20724;-70
2022/07/10 13:08:19;;;;;;;3.70;0.90;;;21.70;99.90;;;;;;4956452;28;20229;-71
2022/07/10 13:10:52;;;;;;;2.63;0.80;;;21.60;99.90;;;;;;4966554;28;20218;-73